sensor_id;sensor_type;location;lat;lon;timestamp;P1;durP1;ratioP1;P2;durP2;ratioP2
9974;SDS011;5028;50.974;4.968;2023-03-24T00:01:39;3.80;;;1.80;;
9974;SDS011;5028;50.974;4.968;2023-03-24T00:04:09;2.70;;;2.10;;
9974;SDS011;5028;50.974;4.968;2023-03-24T00:06:44;2.10;;;1.90;;
9974;SDS011;5028;50.974;4.968;2023-03-24T00:09:21;2.83;;;1.63;;
9974;SDS011;5028;50.974;4.968;2023-03-24T00:12:02;3.10;;;1.80;;
9974;SDS011;5028;50.974;4.968;2023-03-24T00:14:38;2.37;;;1.80;;
9974;SDS011;5028;50.974;4.968;2023-03-24T00:17:07;2.33;;;1.90;;
9974;SDS011;5028;50.974;4.968;2023-03-24T00:19:46;2.37;;;1.70;;
9974;SDS011;5028;50.974;4.968;2023-03-24T00:22:22;1.87;;;1.60;;
9974;SDS011;5028;50.974;4.968;2023-03-24T00:24:53;1.80;;;1.70;;
9974;SDS011;5028;50.974;4.968;2023-03-24T00:27:29;2.23;;;1.33;;
9974;SDS011;5028;50.974;4.968;2023-03-24T00:30:09;3.57;;;1.80;;
9974;SDS011;5028;50.974;4.968;2023-03-24T00:32:39;2.53;;;1.70;;
9974;SDS011;5028;50.974;4.968;2023-03-24T00:35:17;2.53;;;1.90;;
9974;SDS011;5028;50.974;4.968;2023-03-24T00:37:46;2.67;;;1.70;;
9974;SDS011;5028;50.974;4.968;2023-03-24T00:40:23;2.47;;;1.60;;
9974;SDS011;5028;50.974;4.968;2023-03-24T00:42:53;2.33;;;1.77;;
9974;SDS011;5028;50.974;4.968;2023-03-24T00:45:28;2.23;;;1.70;;
9974;SDS011;5028;50.974;4.968;2023-03-24T00:48:00;2.50;;;1.70;;
9974;SDS011;5028;50.974;4.968;2023-03-24T00:50:38;2.30;;;1.60;;
9974;SDS011;5028;50.974;4.968;2023-03-24T00:53:13;2.43;;;1.80;;
9974;SDS011;5028;50.974;4.968;2023-03-24T00:55:42;3.23;;;1.80;;
9974;SDS011;5028;50.974;4.968;2023-03-24T00:58:19;2.10;;;1.63;;
9974;SDS011;5028;50.974;4.968;2023-03-24T01:00:56;3.07;;;2.10;;
9974;SDS011;5028;50.974;4.968;2023-03-24T01:03:25;2.40;;;1.60;;
9974;SDS011;5028;50.974;4.968;2023-03-24T01:06:02;3.00;;;1.90;;
9974;SDS011;5028;50.974;4.968;2023-03-24T01:08:32;2.37;;;1.83;;
9974;SDS011;5028;50.974;4.968;2023-03-24T01:11:14;2.20;;;1.90;;
9974;SDS011;5028;50.974;4.968;2023-03-24T01:13:43;2.73;;;1.70;;
9974;SDS011;5028;50.974;4.968;2023-03-24T01:16:18;2.90;;;1.83;;
9974;SDS011;5028;50.974;4.968;2023-03-24T01:18:51;3.03;;;2.10;;
9974;SDS011;5028;50.974;4.968;2023-03-24T01:21:27;2.10;;;1.90;;
9974;SDS011;5028;50.974;4.968;2023-03-24T01:23:57;2.07;;;1.80;;
9974;SDS011;5028;50.974;4.968;2023-03-24T01:26:33;3.10;;;1.97;;
9974;SDS011;5028;50.974;4.968;2023-03-24T01:29:02;2.40;;;1.80;;
9974;SDS011;5028;50.974;4.968;2023-03-24T01:31:31;2.33;;;1.90;;
9974;SDS011;5028;50.974;4.968;2023-03-24T01:34:07;2.10;;;1.90;;
9974;SDS011;5028;50.974;4.968;2023-03-24T01:36:38;2.67;;;2.07;;
9974;SDS011;5028;50.974;4.968;2023-03-24T01:39:13;2.80;;;2.07;;
9974;SDS011;5028;50.974;4.968;2023-03-24T01:41:42;2.53;;;2.30;;
9974;SDS011;5028;50.974;4.968;2023-03-24T01:44:28;2.97;;;2.37;;
9974;SDS011;5028;50.974;4.968;2023-03-24T01:46:58;2.47;;;2.27;;
9974;SDS011;5028;50.974;4.968;2023-03-24T01:49:35;3.70;;;2.40;;
9974;SDS011;5028;50.974;4.968;2023-03-24T01:52:10;3.47;;;2.23;;
9974;SDS011;5028;50.974;4.968;2023-03-24T01:54:49;3.40;;;2.20;;
9974;SDS011;5028;50.974;4.968;2023-03-24T01:57:22;2.30;;;2.10;;
9974;SDS011;5028;50.974;4.968;2023-03-24T02:00:06;2.53;;;2.03;;
9974;SDS011;5028;50.974;4.968;2023-03-24T02:02:39;2.20;;;2.00;;
9974;SDS011;5028;50.974;4.968;2023-03-24T02:05:29;2.73;;;2.13;;
9974;SDS011;5028;50.974;4.968;2023-03-24T02:08:09;2.33;;;1.90;;
9974;SDS011;5028;50.974;4.968;2023-03-24T02:10:41;2.80;;;1.90;;
9974;SDS011;5028;50.974;4.968;2023-03-24T02:13:18;2.30;;;2.00;;
9974;SDS011;5028;50.974;4.968;2023-03-24T02:15:50;3.33;;;2.00;;
9974;SDS011;5028;50.974;4.968;2023-03-24T02:18:35;2.00;;;1.73;;
9974;SDS011;5028;50.974;4.968;2023-03-24T02:33:44;1.90;;;1.73;;
9974;SDS011;5028;50.974;4.968;2023-03-24T02:40:13;2.43;;;2.00;;
9974;SDS011;5028;50.974;4.968;2023-03-24T02:43:04;2.17;;;1.67;;
9974;SDS011;5028;50.974;4.968;2023-03-24T02:45:46;2.00;;;1.80;;
9974;SDS011;5028;50.974;4.968;2023-03-24T02:48:29;1.63;;;1.50;;
9974;SDS011;5028;50.974;4.968;2023-03-24T02:51:06;2.10;;;1.80;;
9974;SDS011;5028;50.974;4.968;2023-03-24T02:53:49;3.10;;;1.60;;
9974;SDS011;5028;50.974;4.968;2023-03-24T02:56:26;1.93;;;1.60;;
9974;SDS011;5028;50.974;4.968;2023-03-24T02:59:08;1.47;;;1.37;;
9974;SDS011;5028;50.974;4.968;2023-03-24T03:01:43;3.27;;;1.40;;
9974;SDS011;5028;50.974;4.968;2023-03-24T03:04:27;1.73;;;1.00;;
9974;SDS011;5028;50.974;4.968;2023-03-24T03:07:06;1.73;;;0.97;;
9974;SDS011;5028;50.974;4.968;2023-03-24T03:09:46;2.50;;;1.07;;
9974;SDS011;5028;50.974;4.968;2023-03-24T03:12:21;2.53;;;1.00;;
9974;SDS011;5028;50.974;4.968;2023-03-24T03:15:00;2.03;;;1.10;;
9974;SDS011;5028;50.974;4.968;2023-03-24T03:17:34;3.23;;;1.20;;
9974;SDS011;5028;50.974;4.968;2023-03-24T03:20:14;2.13;;;1.10;;
9974;SDS011;5028;50.974;4.968;2023-03-24T03:22:49;3.00;;;1.07;;
9974;SDS011;5028;50.974;4.968;2023-03-24T03:25:27;2.30;;;1.20;;
9974;SDS011;5028;50.974;4.968;2023-03-24T03:28:01;2.77;;;1.20;;
9974;SDS011;5028;50.974;4.968;2023-03-24T03:30:39;3.03;;;1.30;;
9974;SDS011;5028;50.974;4.968;2023-03-24T03:33:11;2.40;;;1.03;;
9974;SDS011;5028;50.974;4.968;2023-03-24T03:35:57;3.70;;;1.30;;
9974;SDS011;5028;50.974;4.968;2023-03-24T03:38:43;3.00;;;1.03;;
9974;SDS011;5028;50.974;4.968;2023-03-24T03:41:16;2.70;;;1.13;;
9974;SDS011;5028;50.974;4.968;2023-03-24T03:43:54;3.93;;;1.30;;
9974;SDS011;5028;50.974;4.968;2023-03-24T03:46:23;2.47;;;1.10;;
9974;SDS011;5028;50.974;4.968;2023-03-24T03:48:59;3.93;;;1.30;;
9974;SDS011;5028;50.974;4.968;2023-03-24T03:51:28;3.43;;;1.30;;
9974;SDS011;5028;50.974;4.968;2023-03-24T03:54:04;1.73;;;1.10;;
9974;SDS011;5028;50.974;4.968;2023-03-24T03:56:41;3.63;;;1.23;;
9974;SDS011;5028;50.974;4.968;2023-03-24T03:59:24;4.83;;;1.53;;
9974;SDS011;5028;50.974;4.968;2023-03-24T04:02:01;1.40;;;1.10;;
9974;SDS011;5028;50.974;4.968;2023-03-24T04:05:05;4.57;;;1.13;;
9974;SDS011;5028;50.974;4.968;2023-03-24T04:08:03;3.97;;;1.40;;
9974;SDS011;5028;50.974;4.968;2023-03-24T04:10:52;3.17;;;1.30;;
9974;SDS011;5028;50.974;4.968;2023-03-24T04:13:59;3.63;;;1.30;;
9974;SDS011;5028;50.974;4.968;2023-03-24T04:16:49;3.13;;;1.40;;
9974;SDS011;5028;50.974;4.968;2023-03-24T04:19:30;5.43;;;1.50;;
9974;SDS011;5028;50.974;4.968;2023-03-24T04:22:16;4.03;;;1.63;;
9974;SDS011;5028;50.974;4.968;2023-03-24T04:25:00;3.50;;;1.43;;
9974;SDS011;5028;50.974;4.968;2023-03-24T04:27:38;4.27;;;1.43;;
9974;SDS011;5028;50.974;4.968;2023-03-24T04:30:22;4.87;;;1.53;;
9974;SDS011;5028;50.974;4.968;2023-03-24T04:32:57;4.47;;;1.60;;
9974;SDS011;5028;50.974;4.968;2023-03-24T04:35:37;4.67;;;1.50;;
9974;SDS011;5028;50.974;4.968;2023-03-24T04:38:11;4.00;;;1.57;;
9974;SDS011;5028;50.974;4.968;2023-03-24T04:40:49;2.77;;;1.40;;
9974;SDS011;5028;50.974;4.968;2023-03-24T04:43:21;6.03;;;1.70;;
9974;SDS011;5028;50.974;4.968;2023-03-24T04:46:01;4.90;;;1.37;;
9974;SDS011;5028;50.974;4.968;2023-03-24T04:48:32;4.77;;;1.80;;
9974;SDS011;5028;50.974;4.968;2023-03-24T04:51:07;5.67;;;1.80;;
9974;SDS011;5028;50.974;4.968;2023-03-24T04:53:36;4.27;;;1.87;;
9974;SDS011;5028;50.974;4.968;2023-03-24T04:56:21;5.10;;;1.60;;
9974;SDS011;5028;50.974;4.968;2023-03-24T04:58:58;7.10;;;1.87;;
9974;SDS011;5028;50.974;4.968;2023-03-24T05:01:32;7.13;;;1.90;;
9974;SDS011;5028;50.974;4.968;2023-03-24T05:04:04;7.23;;;1.80;;
9974;SDS011;5028;50.974;4.968;2023-03-24T05:06:47;10.37;;;2.10;;
9974;SDS011;5028;50.974;4.968;2023-03-24T05:09:16;6.07;;;2.00;;
9974;SDS011;5028;50.974;4.968;2023-03-24T05:11:52;9.03;;;2.13;;
9974;SDS011;5028;50.974;4.968;2023-03-24T05:14:28;7.07;;;2.33;;
9974;SDS011;5028;50.974;4.968;2023-03-24T05:16:56;6.17;;;2.13;;
9974;SDS011;5028;50.974;4.968;2023-03-24T05:19:33;10.27;;;2.73;;
9974;SDS011;5028;50.974;4.968;2023-03-24T05:22:08;8.40;;;2.67;;
9974;SDS011;5028;50.974;4.968;2023-03-24T05:24:37;8.50;;;2.43;;
9974;SDS011;5028;50.974;4.968;2023-03-24T05:27:13;8.37;;;2.07;;
9974;SDS011;5028;50.974;4.968;2023-03-24T05:29:48;8.83;;;2.43;;
9974;SDS011;5028;50.974;4.968;2023-03-24T05:32:17;8.40;;;2.50;;
9974;SDS011;5028;50.974;4.968;2023-03-24T05:34:54;8.03;;;2.20;;
9974;SDS011;5028;50.974;4.968;2023-03-24T05:37:29;10.10;;;2.80;;
9974;SDS011;5028;50.974;4.968;2023-03-24T05:39:58;7.30;;;2.50;;
9974;SDS011;5028;50.974;4.968;2023-03-24T05:42:34;10.13;;;2.70;;
9974;SDS011;5028;50.974;4.968;2023-03-24T05:45:03;9.13;;;2.77;;
9974;SDS011;5028;50.974;4.968;2023-03-24T05:47:32;8.70;;;2.50;;
9974;SDS011;5028;50.974;4.968;2023-03-24T05:50:10;9.70;;;2.87;;
9974;SDS011;5028;50.974;4.968;2023-03-24T05:52:39;8.87;;;3.07;;
9974;SDS011;5028;50.974;4.968;2023-03-24T05:55:15;9.03;;;3.10;;
9974;SDS011;5028;50.974;4.968;2023-03-24T05:57:44;8.77;;;2.73;;
9974;SDS011;5028;50.974;4.968;2023-03-24T06:00:19;11.63;;;3.43;;
9974;SDS011;5028;50.974;4.968;2023-03-24T06:02:48;8.87;;;2.80;;
9974;SDS011;5028;50.974;4.968;2023-03-24T06:05:26;7.63;;;2.77;;
9974;SDS011;5028;50.974;4.968;2023-03-24T06:08:02;10.80;;;3.07;;
9974;SDS011;5028;50.974;4.968;2023-03-24T06:10:37;10.03;;;2.90;;
9974;SDS011;5028;50.974;4.968;2023-03-24T06:13:13;6.80;;;2.53;;
9974;SDS011;5028;50.974;4.968;2023-03-24T06:15:42;9.33;;;3.33;;
9974;SDS011;5028;50.974;4.968;2023-03-24T06:18:19;9.33;;;3.30;;
9974;SDS011;5028;50.974;4.968;2023-03-24T06:20:57;11.43;;;3.30;;
9974;SDS011;5028;50.974;4.968;2023-03-24T06:23:26;7.83;;;3.17;;
9974;SDS011;5028;50.974;4.968;2023-03-24T06:26:06;9.20;;;2.90;;
9974;SDS011;5028;50.974;4.968;2023-03-24T06:28:43;11.00;;;2.73;;
9974;SDS011;5028;50.974;4.968;2023-03-24T06:31:12;8.37;;;2.80;;
9974;SDS011;5028;50.974;4.968;2023-03-24T06:33:52;8.30;;;2.90;;
9974;SDS011;5028;50.974;4.968;2023-03-24T06:36:29;8.90;;;2.63;;
9974;SDS011;5028;50.974;4.968;2023-03-24T06:39:00;8.63;;;2.87;;
9974;SDS011;5028;50.974;4.968;2023-03-24T06:41:37;9.60;;;3.17;;
9974;SDS011;5028;50.974;4.968;2023-03-24T06:44:06;9.50;;;2.70;;
9974;SDS011;5028;50.974;4.968;2023-03-24T06:46:35;16.57;;;3.10;;
9974;SDS011;5028;50.974;4.968;2023-03-24T06:49:10;11.50;;;2.77;;
9974;SDS011;5028;50.974;4.968;2023-03-24T06:51:41;7.80;;;2.40;;
9974;SDS011;5028;50.974;4.968;2023-03-24T06:54:09;8.87;;;2.70;;
9974;SDS011;5028;50.974;4.968;2023-03-24T06:56:44;7.23;;;2.53;;
9974;SDS011;5028;50.974;4.968;2023-03-24T06:59:13;6.47;;;2.40;;
9974;SDS011;5028;50.974;4.968;2023-03-24T07:01:49;7.33;;;2.73;;
9974;SDS011;5028;50.974;4.968;2023-03-24T07:04:31;8.97;;;2.80;;
9974;SDS011;5028;50.974;4.968;2023-03-24T07:07:14;13.03;;;2.53;;
9974;SDS011;5028;50.974;4.968;2023-03-24T07:09:52;10.27;;;3.07;;
9974;SDS011;5028;50.974;4.968;2023-03-24T07:12:28;8.70;;;3.03;;
9974;SDS011;5028;50.974;4.968;2023-03-24T07:14:57;7.13;;;2.40;;
9974;SDS011;5028;50.974;4.968;2023-03-24T07:17:36;10.87;;;2.80;;
9974;SDS011;5028;50.974;4.968;2023-03-24T07:20:11;11.00;;;2.70;;
9974;SDS011;5028;50.974;4.968;2023-03-24T07:22:43;9.30;;;2.43;;
9974;SDS011;5028;50.974;4.968;2023-03-24T07:25:19;12.43;;;3.20;;
9974;SDS011;5028;50.974;4.968;2023-03-24T07:27:55;11.47;;;3.10;;
9974;SDS011;5028;50.974;4.968;2023-03-24T07:30:24;8.80;;;2.70;;
9974;SDS011;5028;50.974;4.968;2023-03-24T07:33:19;8.10;;;2.87;;
9974;SDS011;5028;50.974;4.968;2023-03-24T07:35:55;8.13;;;2.90;;
9974;SDS011;5028;50.974;4.968;2023-03-24T07:38:26;11.03;;;2.60;;
9974;SDS011;5028;50.974;4.968;2023-03-24T07:41:02;9.60;;;2.77;;
9974;SDS011;5028;50.974;4.968;2023-03-24T07:43:31;9.13;;;2.97;;
9974;SDS011;5028;50.974;4.968;2023-03-24T07:46:00;11.87;;;2.83;;
9974;SDS011;5028;50.974;4.968;2023-03-24T07:48:36;9.03;;;2.57;;
9974;SDS011;5028;50.974;4.968;2023-03-24T07:51:05;11.13;;;2.93;;
9974;SDS011;5028;50.974;4.968;2023-03-24T07:53:35;10.33;;;2.70;;
9974;SDS011;5028;50.974;4.968;2023-03-24T07:56:11;11.67;;;2.73;;
9974;SDS011;5028;50.974;4.968;2023-03-24T07:58:39;10.10;;;3.10;;
9974;SDS011;5028;50.974;4.968;2023-03-24T08:01:14;10.63;;;2.73;;
9974;SDS011;5028;50.974;4.968;2023-03-24T08:03:56;8.27;;;2.40;;
9974;SDS011;5028;50.974;4.968;2023-03-24T08:06:38;8.47;;;2.53;;
9974;SDS011;5028;50.974;4.968;2023-03-24T08:09:15;8.70;;;2.70;;
9974;SDS011;5028;50.974;4.968;2023-03-24T08:11:50;8.87;;;2.70;;
9974;SDS011;5028;50.974;4.968;2023-03-24T08:14:19;10.07;;;2.50;;
9974;SDS011;5028;50.974;4.968;2023-03-24T08:16:53;8.43;;;2.10;;
9974;SDS011;5028;50.974;4.968;2023-03-24T08:19:24;7.97;;;2.57;;
9974;SDS011;5028;50.974;4.968;2023-03-24T08:22:05;7.37;;;2.60;;
9974;SDS011;5028;50.974;4.968;2023-03-24T08:24:35;8.20;;;2.57;;
9974;SDS011;5028;50.974;4.968;2023-03-24T08:27:11;9.10;;;2.40;;
9974;SDS011;5028;50.974;4.968;2023-03-24T08:29:39;8.10;;;2.37;;
9974;SDS011;5028;50.974;4.968;2023-03-24T08:32:14;6.40;;;2.53;;
9974;SDS011;5028;50.974;4.968;2023-03-24T08:34:50;8.23;;;2.10;;
9974;SDS011;5028;50.974;4.968;2023-03-24T08:37:19;8.37;;;2.43;;
9974;SDS011;5028;50.974;4.968;2023-03-24T08:39:56;7.10;;;2.40;;
9974;SDS011;5028;50.974;4.968;2023-03-24T08:42:37;8.13;;;2.53;;
9974;SDS011;5028;50.974;4.968;2023-03-24T08:45:14;8.30;;;2.50;;
9974;SDS011;5028;50.974;4.968;2023-03-24T08:47:46;9.77;;;2.93;;
9974;SDS011;5028;50.974;4.968;2023-03-24T08:50:24;7.67;;;2.70;;
9974;SDS011;5028;50.974;4.968;2023-03-24T08:52:55;9.67;;;2.50;;
9974;SDS011;5028;50.974;4.968;2023-03-24T08:55:33;6.83;;;2.20;;
9974;SDS011;5028;50.974;4.968;2023-03-24T08:58:03;7.60;;;2.33;;
9974;SDS011;5028;50.974;4.968;2023-03-24T09:00:31;7.33;;;2.43;;
9974;SDS011;5028;50.974;4.968;2023-03-24T09:03:08;5.73;;;2.20;;
9974;SDS011;5028;50.974;4.968;2023-03-24T09:05:45;8.93;;;2.20;;
9974;SDS011;5028;50.974;4.968;2023-03-24T09:08:21;6.97;;;1.97;;
9974;SDS011;5028;50.974;4.968;2023-03-24T09:10:58;8.00;;;2.23;;
9974;SDS011;5028;50.974;4.968;2023-03-24T09:13:27;7.67;;;2.00;;
9974;SDS011;5028;50.974;4.968;2023-03-24T09:16:02;6.93;;;2.30;;
9974;SDS011;5028;50.974;4.968;2023-03-24T09:18:38;6.63;;;2.00;;
9974;SDS011;5028;50.974;4.968;2023-03-24T09:21:06;11.87;;;2.27;;
9974;SDS011;5028;50.974;4.968;2023-03-24T09:23:42;9.80;;;3.27;;
9974;SDS011;5028;50.974;4.968;2023-03-24T09:26:18;9.93;;;2.70;;
9974;SDS011;5028;50.974;4.968;2023-03-24T09:28:48;8.40;;;2.13;;
9974;SDS011;5028;50.974;4.968;2023-03-24T09:31:23;7.97;;;2.17;;
9974;SDS011;5028;50.974;4.968;2023-03-24T09:33:58;7.03;;;2.33;;
9974;SDS011;5028;50.974;4.968;2023-03-24T09:36:29;8.47;;;2.30;;
9974;SDS011;5028;50.974;4.968;2023-03-24T09:39:10;8.30;;;2.17;;
9974;SDS011;5028;50.974;4.968;2023-03-24T09:41:47;10.80;;;2.10;;
9974;SDS011;5028;50.974;4.968;2023-03-24T09:44:20;9.40;;;2.13;;
9974;SDS011;5028;50.974;4.968;2023-03-24T09:46:59;6.90;;;1.97;;
9974;SDS011;5028;50.974;4.968;2023-03-24T09:49:31;8.37;;;2.43;;
9974;SDS011;5028;50.974;4.968;2023-03-24T09:52:12;7.07;;;2.10;;
9974;SDS011;5028;50.974;4.968;2023-03-24T09:54:47;4.93;;;2.20;;
9974;SDS011;5028;50.974;4.968;2023-03-24T09:57:28;6.90;;;2.17;;
9974;SDS011;5028;50.974;4.968;2023-03-24T10:00:04;8.67;;;2.30;;
9974;SDS011;5028;50.974;4.968;2023-03-24T10:02:50;6.30;;;2.10;;
9974;SDS011;5028;50.974;4.968;2023-03-24T10:05:23;7.40;;;2.07;;
9974;SDS011;5028;50.974;4.968;2023-03-24T10:08:18;6.40;;;2.13;;
9974;SDS011;5028;50.974;4.968;2023-03-24T10:10:58;5.30;;;2.17;;
9974;SDS011;5028;50.974;4.968;2023-03-24T10:13:46;8.87;;;2.07;;
9974;SDS011;5028;50.974;4.968;2023-03-24T10:16:39;6.00;;;2.07;;
9974;SDS011;5028;50.974;4.968;2023-03-24T10:19:29;7.37;;;2.10;;
9974;SDS011;5028;50.974;4.968;2023-03-24T10:22:16;6.63;;;2.07;;
9974;SDS011;5028;50.974;4.968;2023-03-24T10:24:56;6.17;;;1.87;;
9974;SDS011;5028;50.974;4.968;2023-03-24T10:27:33;7.53;;;2.20;;
9974;SDS011;5028;50.974;4.968;2023-03-24T10:30:17;9.83;;;2.10;;
9974;SDS011;5028;50.974;4.968;2023-03-24T10:32:49;8.43;;;2.23;;
9974;SDS011;5028;50.974;4.968;2023-03-24T10:35:28;10.43;;;2.13;;
9974;SDS011;5028;50.974;4.968;2023-03-24T10:37:59;8.33;;;2.27;;
9974;SDS011;5028;50.974;4.968;2023-03-24T10:40:41;6.93;;;2.23;;
9974;SDS011;5028;50.974;4.968;2023-03-24T10:43:10;6.73;;;2.30;;
9974;SDS011;5028;50.974;4.968;2023-03-24T10:45:47;5.03;;;1.73;;
9974;SDS011;5028;50.974;4.968;2023-03-24T10:48:32;6.53;;;2.17;;
9974;SDS011;5028;50.974;4.968;2023-03-24T10:51:14;5.93;;;2.17;;
9974;SDS011;5028;50.974;4.968;2023-03-24T10:53:45;7.80;;;2.30;;
9974;SDS011;5028;50.974;4.968;2023-03-24T10:56:35;8.00;;;2.30;;
9974;SDS011;5028;50.974;4.968;2023-03-24T10:59:20;6.07;;;2.30;;
9974;SDS011;5028;50.974;4.968;2023-03-24T11:02:14;6.13;;;2.30;;
9974;SDS011;5028;50.974;4.968;2023-03-24T11:04:52;5.50;;;2.20;;
9974;SDS011;5028;50.974;4.968;2023-03-24T11:07:38;7.37;;;2.20;;
9974;SDS011;5028;50.974;4.968;2023-03-24T11:10:15;6.70;;;2.27;;
9974;SDS011;5028;50.974;4.968;2023-03-24T11:12:57;8.13;;;2.50;;
9974;SDS011;5028;50.974;4.968;2023-03-24T11:15:39;8.83;;;2.40;;
9974;SDS011;5028;50.974;4.968;2023-03-24T11:18:28;8.67;;;2.30;;
9974;SDS011;5028;50.974;4.968;2023-03-24T11:20:58;5.83;;;2.27;;
9974;SDS011;5028;50.974;4.968;2023-03-24T11:23:37;8.20;;;2.73;;
9974;SDS011;5028;50.974;4.968;2023-03-24T11:26:11;6.93;;;2.23;;
9974;SDS011;5028;50.974;4.968;2023-03-24T11:28:49;7.10;;;2.57;;
9974;SDS011;5028;50.974;4.968;2023-03-24T11:31:20;8.40;;;2.63;;
9974;SDS011;5028;50.974;4.968;2023-03-24T11:34:05;5.80;;;2.00;;
9974;SDS011;5028;50.974;4.968;2023-03-24T11:36:40;5.80;;;1.70;;
9974;SDS011;5028;50.974;4.968;2023-03-24T11:39:21;5.97;;;2.27;;
9974;SDS011;5028;50.974;4.968;2023-03-24T11:42:01;5.13;;;1.77;;
9974;SDS011;5028;50.974;4.968;2023-03-24T11:44:43;5.70;;;2.00;;
9974;SDS011;5028;50.974;4.968;2023-03-24T11:47:15;6.43;;;2.10;;
9974;SDS011;5028;50.974;4.968;2023-03-24T11:50:00;6.83;;;2.07;;
9974;SDS011;5028;50.974;4.968;2023-03-24T11:52:44;4.60;;;1.73;;
9974;SDS011;5028;50.974;4.968;2023-03-24T11:55:31;5.97;;;1.97;;
9974;SDS011;5028;50.974;4.968;2023-03-24T11:58:05;6.27;;;1.73;;
9974;SDS011;5028;50.974;4.968;2023-03-24T12:00:46;3.93;;;1.70;;
9974;SDS011;5028;50.974;4.968;2023-03-24T12:03:27;4.73;;;1.57;;
9974;SDS011;5028;50.974;4.968;2023-03-24T12:06:18;5.97;;;1.80;;
9974;SDS011;5028;50.974;4.968;2023-03-24T12:09:07;6.47;;;2.00;;
9974;SDS011;5028;50.974;4.968;2023-03-24T12:12:02;6.83;;;2.00;;
9974;SDS011;5028;50.974;4.968;2023-03-24T12:14:41;4.97;;;2.00;;
9974;SDS011;5028;50.974;4.968;2023-03-24T12:17:27;6.17;;;2.30;;
9974;SDS011;5028;50.974;4.968;2023-03-24T12:20:07;7.10;;;2.23;;
9974;SDS011;5028;50.974;4.968;2023-03-24T12:22:59;4.87;;;2.03;;
9974;SDS011;5028;50.974;4.968;2023-03-24T12:25:41;5.63;;;1.80;;
9974;SDS011;5028;50.974;4.968;2023-03-24T12:28:31;6.37;;;2.13;;
9974;SDS011;5028;50.974;4.968;2023-03-24T12:37:38;4.77;;;2.03;;
9974;SDS011;5028;50.974;4.968;2023-03-24T12:43:37;4.70;;;2.00;;
9974;SDS011;5028;50.974;4.968;2023-03-24T12:46:19;6.80;;;2.30;;
9974;SDS011;5028;50.974;4.968;2023-03-24T12:49:20;5.70;;;2.17;;
9974;SDS011;5028;50.974;4.968;2023-03-24T12:52:22;4.07;;;1.70;;
9974;SDS011;5028;50.974;4.968;2023-03-24T12:55:09;6.50;;;1.97;;
9974;SDS011;5028;50.974;4.968;2023-03-24T12:57:45;5.43;;;2.00;;
9974;SDS011;5028;50.974;4.968;2023-03-24T13:00:26;6.37;;;2.53;;
9974;SDS011;5028;50.974;4.968;2023-03-24T13:02:58;6.90;;;2.80;;
9974;SDS011;5028;50.974;4.968;2023-03-24T13:05:44;5.70;;;2.70;;
9974;SDS011;5028;50.974;4.968;2023-03-24T13:08:36;5.20;;;2.33;;
9974;SDS011;5028;50.974;4.968;2023-03-24T13:11:14;5.90;;;2.60;;
9974;SDS011;5028;50.974;4.968;2023-03-24T13:14:00;7.07;;;2.50;;
9974;SDS011;5028;50.974;4.968;2023-03-24T13:16:32;4.80;;;2.53;;
9974;SDS011;5028;50.974;4.968;2023-03-24T13:19:13;6.03;;;2.50;;
9974;SDS011;5028;50.974;4.968;2023-03-24T13:21:46;6.10;;;2.30;;
9974;SDS011;5028;50.974;4.968;2023-03-24T13:24:22;5.83;;;2.23;;
9974;SDS011;5028;50.974;4.968;2023-03-24T13:26:55;4.83;;;2.20;;
9974;SDS011;5028;50.974;4.968;2023-03-24T13:32:47;5.37;;;2.10;;
9974;SDS011;5028;50.974;4.968;2023-03-24T13:35:31;6.33;;;2.23;;
9974;SDS011;5028;50.974;4.968;2023-03-24T13:38:21;5.13;;;2.20;;
9974;SDS011;5028;50.974;4.968;2023-03-24T13:40:59;5.53;;;1.93;;
9974;SDS011;5028;50.974;4.968;2023-03-24T13:43:44;5.37;;;1.70;;
9974;SDS011;5028;50.974;4.968;2023-03-24T13:46:18;5.80;;;2.03;;
9974;SDS011;5028;50.974;4.968;2023-03-24T13:48:53;6.60;;;1.97;;
9974;SDS011;5028;50.974;4.968;2023-03-24T13:51:23;5.47;;;1.90;;
9974;SDS011;5028;50.974;4.968;2023-03-24T13:54:03;4.33;;;1.30;;
9974;SDS011;5028;50.974;4.968;2023-03-24T13:56:34;4.77;;;1.53;;
9974;SDS011;5028;50.974;4.968;2023-03-24T14:02:16;6.87;;;1.73;;
9974;SDS011;5028;50.974;4.968;2023-03-24T14:05:04;4.70;;;1.50;;
9974;SDS011;5028;50.974;4.968;2023-03-24T14:07:47;4.10;;;1.20;;
9974;SDS011;5028;50.974;4.968;2023-03-24T14:22:13;3.90;;;1.30;;
9974;SDS011;5028;50.974;4.968;2023-03-24T14:24:54;3.77;;;1.10;;
9974;SDS011;5028;50.974;4.968;2023-03-24T14:27:33;3.30;;;1.10;;
9974;SDS011;5028;50.974;4.968;2023-03-24T14:30:12;4.33;;;1.30;;
9974;SDS011;5028;50.974;4.968;2023-03-24T14:32:47;5.77;;;1.57;;
9974;SDS011;5028;50.974;4.968;2023-03-24T14:35:31;3.50;;;1.20;;
9974;SDS011;5028;50.974;4.968;2023-03-24T14:38:03;3.27;;;1.27;;
9974;SDS011;5028;50.974;4.968;2023-03-24T14:40:55;4.50;;;1.90;;
9974;SDS011;5028;50.974;4.968;2023-03-24T14:43:26;4.73;;;1.40;;
9974;SDS011;5028;50.974;4.968;2023-03-24T14:46:03;5.30;;;1.70;;
9974;SDS011;5028;50.974;4.968;2023-03-24T14:48:43;2.20;;;1.30;;
9974;SDS011;5028;50.974;4.968;2023-03-24T14:54:28;6.03;;;1.80;;
9974;SDS011;5028;50.974;4.968;2023-03-24T14:57:01;4.83;;;1.77;;
9974;SDS011;5028;50.974;4.968;2023-03-24T14:59:40;3.43;;;1.50;;
9974;SDS011;5028;50.974;4.968;2023-03-24T15:02:24;5.10;;;1.70;;
9974;SDS011;5028;50.974;4.968;2023-03-24T15:05:16;3.80;;;1.43;;
9974;SDS011;5028;50.974;4.968;2023-03-24T15:08:04;3.60;;;1.40;;
9974;SDS011;5028;50.974;4.968;2023-03-24T15:10:46;2.70;;;1.40;;
9974;SDS011;5028;50.974;4.968;2023-03-24T15:13:28;3.70;;;1.70;;
9974;SDS011;5028;50.974;4.968;2023-03-24T15:16:15;3.70;;;1.67;;
9974;SDS011;5028;50.974;4.968;2023-03-24T15:18:47;4.03;;;1.63;;
9974;SDS011;5028;50.974;4.968;2023-03-24T15:21:29;4.57;;;1.70;;
9974;SDS011;5028;50.974;4.968;2023-03-24T15:24:02;3.83;;;1.40;;
9974;SDS011;5028;50.974;4.968;2023-03-24T15:27:18;4.17;;;1.67;;
9974;SDS011;5028;50.974;4.968;2023-03-24T15:29:55;3.47;;;1.60;;
9974;SDS011;5028;50.974;4.968;2023-03-24T15:32:32;3.43;;;1.53;;
9974;SDS011;5028;50.974;4.968;2023-03-24T15:35:05;2.17;;;1.13;;
9974;SDS011;5028;50.974;4.968;2023-03-24T15:37:48;2.20;;;1.17;;
9974;SDS011;5028;50.974;4.968;2023-03-24T15:40:37;2.10;;;1.20;;
9974;SDS011;5028;50.974;4.968;2023-03-24T15:43:15;3.33;;;1.20;;
9974;SDS011;5028;50.974;4.968;2023-03-24T15:45:49;2.40;;;1.23;;
9974;SDS011;5028;50.974;4.968;2023-03-24T15:48:37;3.03;;;1.47;;
9974;SDS011;5028;50.974;4.968;2023-03-24T15:51:06;3.43;;;1.07;;
9974;SDS011;5028;50.974;4.968;2023-03-24T15:53:45;3.00;;;1.23;;
9974;SDS011;5028;50.974;4.968;2023-03-24T15:56:24;1.93;;;1.07;;
9974;SDS011;5028;50.974;4.968;2023-03-24T15:59:06;4.07;;;1.30;;
9974;SDS011;5028;50.974;4.968;2023-03-24T16:01:40;3.47;;;1.20;;
9974;SDS011;5028;50.974;4.968;2023-03-24T16:04:17;3.27;;;1.30;;
9974;SDS011;5028;50.974;4.968;2023-03-24T16:06:46;4.03;;;1.13;;
9974;SDS011;5028;50.974;4.968;2023-03-24T16:09:23;3.23;;;1.30;;
9974;SDS011;5028;50.974;4.968;2023-03-24T16:12:00;4.07;;;1.20;;
9974;SDS011;5028;50.974;4.968;2023-03-24T16:14:31;2.73;;;1.17;;
9974;SDS011;5028;50.974;4.968;2023-03-24T16:17:08;3.33;;;1.47;;
9974;SDS011;5028;50.974;4.968;2023-03-24T16:19:36;4.73;;;1.50;;
9974;SDS011;5028;50.974;4.968;2023-03-24T16:22:12;3.87;;;1.70;;
9974;SDS011;5028;50.974;4.968;2023-03-24T16:24:47;2.53;;;1.20;;
9974;SDS011;5028;50.974;4.968;2023-03-24T16:27:17;3.80;;;1.60;;
9974;SDS011;5028;50.974;4.968;2023-03-24T16:29:52;2.87;;;1.40;;
9974;SDS011;5028;50.974;4.968;2023-03-24T16:32:21;3.83;;;1.50;;
9974;SDS011;5028;50.974;4.968;2023-03-24T16:34:49;6.27;;;2.07;;
9974;SDS011;5028;50.974;4.968;2023-03-24T16:37:45;4.07;;;1.93;;
9974;SDS011;5028;50.974;4.968;2023-03-24T16:40:24;4.90;;;1.80;;
9974;SDS011;5028;50.974;4.968;2023-03-24T16:43:03;3.30;;;1.67;;
9974;SDS011;5028;50.974;4.968;2023-03-24T16:45:41;5.63;;;1.90;;
9974;SDS011;5028;50.974;4.968;2023-03-24T16:48:10;3.80;;;2.17;;
9974;SDS011;5028;50.974;4.968;2023-03-24T16:50:46;3.90;;;1.90;;
9974;SDS011;5028;50.974;4.968;2023-03-24T16:53:23;4.37;;;2.10;;
9974;SDS011;5028;50.974;4.968;2023-03-24T16:55:51;5.73;;;2.40;;
9974;SDS011;5028;50.974;4.968;2023-03-24T16:58:28;4.03;;;2.33;;
9974;SDS011;5028;50.974;4.968;2023-03-24T17:01:08;4.87;;;2.43;;
9974;SDS011;5028;50.974;4.968;2023-03-24T17:03:49;4.80;;;2.20;;
9974;SDS011;5028;50.974;4.968;2023-03-24T17:06:26;3.47;;;2.00;;